createdAt,value
2018-03-04T00:02:11.037Z,37.67
2018-03-04T00:04:38.652Z,34.00
2018-03-04T00:07:06.275Z,32.17
2018-03-04T00:09:33.911Z,30.08
2018-03-04T00:12:01.504Z,28.90
2018-03-04T00:14:29.111Z,33.78
2018-03-04T00:16:56.703Z,50.55
2018-03-04T00:19:24.348Z,51.97
2018-03-04T00:21:51.941Z,39.78
2018-03-04T00:24:19.604Z,28.20
2018-03-04T00:26:47.188Z,25.75
2018-03-04T00:29:14.800Z,26.55
2018-03-04T00:31:42.411Z,33.78
2018-03-04T00:34:09.999Z,25.35
2018-03-04T00:36:37.658Z,22.75
2018-03-04T00:39:05.276Z,30.58
2018-03-04T00:41:33.649Z,29.33
2018-03-04T00:44:01.271Z,35.92
2018-03-04T00:46:28.830Z,29.50
2018-03-04T00:48:56.440Z,30.95
2018-03-04T00:51:24.812Z,37.25
2018-03-04T00:53:52.411Z,41.65
2018-03-04T00:56:19.996Z,41.33
2018-03-04T00:58:47.584Z,39.53
2018-03-04T01:01:15.181Z,36.85
2018-03-04T01:03:42.774Z,30.05
2018-03-04T01:06:10.357Z,28.77
2018-03-04T01:08:37.929Z,32.50
2018-03-04T01:11:05.490Z,35.83
2018-03-04T01:13:33.888Z,39.80
2018-03-04T01:16:02.236Z,43.15
2018-03-04T01:18:29.811Z,65.25
2018-03-04T01:20:57.419Z,77.50
2018-03-04T01:23:24.967Z,68.35
2018-03-04T01:25:52.540Z,65.30
2018-03-04T01:28:20.143Z,47.40
2018-03-04T01:30:47.734Z,43.50
2018-03-04T01:33:15.340Z,41.85
2018-03-04T01:35:42.923Z,33.03
2018-03-04T01:38:10.535Z,25.80
2018-03-04T01:40:38.143Z,33.13
2018-03-04T01:43:05.724Z,26.20
2018-03-04T01:45:34.094Z,24.70
2018-03-04T01:48:02.478Z,24.80
2018-03-04T01:50:30.120Z,25.92
2018-03-04T01:52:57.743Z,27.73
2018-03-04T01:55:25.351Z,25.80
2018-03-04T01:57:53.727Z,28.70
2018-03-04T02:00:22.057Z,30.70
2018-03-04T02:02:49.687Z,32.67
2018-03-04T02:05:17.303Z,33.30
2018-03-04T02:07:44.951Z,32.42
2018-03-04T02:10:12.607Z,34.78
2018-03-04T02:12:40.187Z,35.45
2018-03-04T02:15:07.803Z,38.60
2018-03-04T02:17:35.446Z,35.00
2018-03-04T02:20:03.806Z,35.10
2018-03-04T02:22:31.439Z,32.03
2018-03-04T02:24:59.046Z,32.33
2018-03-04T02:27:26.632Z,31.33
2018-03-04T02:29:54.243Z,31.25
2018-03-04T02:32:21.835Z,32.67
2018-03-04T02:34:49.479Z,31.58
2018-03-04T02:37:17.862Z,32.15
2018-03-04T02:39:46.208Z,44.75
2018-03-04T02:42:13.825Z,41.95
2018-03-04T02:44:41.439Z,36.33
2018-03-04T02:47:09.050Z,34.80
2018-03-04T02:49:36.675Z,37.50
2018-03-04T02:52:05.032Z,39.67
2018-03-04T02:54:32.640Z,35.22
2018-03-04T02:57:00.294Z,37.80
2018-03-04T02:59:27.915Z,36.63
2018-03-04T03:01:55.555Z,33.28
2018-03-04T03:04:23.136Z,35.92
2018-03-04T03:06:50.770Z,37.08
2018-03-04T03:09:18.411Z,37.53
2018-03-04T03:11:46.006Z,37.67
2018-03-04T03:14:13.629Z,36.30
2018-03-04T03:16:41.247Z,36.45
2018-03-04T03:19:08.849Z,32.55
2018-03-04T03:21:36.478Z,31.30
2018-03-04T03:24:04.859Z,25.95
2018-03-04T03:26:33.222Z,26.73
2018-03-04T03:29:00.867Z,32.00
2018-03-04T03:31:28.439Z,31.85
2018-03-04T03:33:56.057Z,32.63
2018-03-04T03:36:23.668Z,34.92
2018-03-04T03:38:51.267Z,33.17
2018-03-04T03:41:18.890Z,34.67
2018-03-04T03:43:46.519Z,34.92
2018-03-04T03:46:14.077Z,32.38
2018-03-04T03:48:41.716Z,30.77
2018-03-04T03:51:09.343Z,32.00
2018-03-04T03:53:36.949Z,31.20
2018-03-04T03:56:04.564Z,32.75
2018-03-04T03:58:32.952Z,33.70
2018-03-04T04:01:01.339Z,30.65
2018-03-04T04:03:28.931Z,31.52
2018-03-04T04:05:56.539Z,24.90
2018-03-04T04:08:24.888Z,20.60
2018-03-04T04:10:52.523Z,20.67
2018-03-04T04:13:20.172Z,22.80
2018-03-04T04:15:47.770Z,23.35
2018-03-04T04:18:15.398Z,22.58
2018-03-04T04:20:43.045Z,24.95
2018-03-04T04:23:10.649Z,27.65
2018-03-04T04:25:38.231Z,30.50
2018-03-04T04:28:05.843Z,32.22
2018-03-04T04:30:33.468Z,35.75
2018-03-04T04:33:01.064Z,32.80
2018-03-04T04:35:28.631Z,32.80
2018-03-04T04:37:56.282Z,31.85
2018-03-04T04:40:23.872Z,35.67
2018-03-04T04:42:51.455Z,37.10
2018-03-04T04:45:19.084Z,36.33
2018-03-04T04:47:46.636Z,35.55
2018-03-04T04:50:14.257Z,34.47
2018-03-04T04:52:41.834Z,33.45
2018-03-04T04:55:09.484Z,33.05
2018-03-04T04:57:37.110Z,30.55
2018-03-04T05:00:04.733Z,29.15
2018-03-04T05:02:44.553Z,30.75
2018-03-04T05:05:12.154Z,35.67
2018-03-04T05:07:51.471Z,32.58
2018-03-04T05:13:15.096Z,31.95
2018-03-04T05:15:42.699Z,30.65
2018-03-04T05:27:03.065Z,33.05
2018-03-04T05:29:30.682Z,37.55
2018-03-04T05:31:59.047Z,42.13
2018-03-04T05:34:26.663Z,46.95
2018-03-04T05:36:54.233Z,49.95
2018-03-04T05:39:21.851Z,42.03
2018-03-04T05:41:49.467Z,43.10
2018-03-04T05:44:34.795Z,41.45
2018-03-04T05:47:02.399Z,39.28
2018-03-04T05:49:29.987Z,42.85
2018-03-04T05:51:57.606Z,49.28
2018-03-04T05:54:26.080Z,42.15
2018-03-04T05:56:53.715Z,44.28
2018-03-04T05:59:21.325Z,39.45
2018-03-04T06:01:48.880Z,38.70
2018-03-04T06:04:16.468Z,38.63
2018-03-04T06:06:44.026Z,37.85
2018-03-04T06:12:23.573Z,33.97
2018-03-04T06:14:51.224Z,30.52
2018-03-04T06:17:18.816Z,28.15
2018-03-04T06:19:47.196Z,27.55
2018-03-04T06:22:15.523Z,39.05
2018-03-04T06:24:43.158Z,35.45
2018-03-04T06:27:10.802Z,38.13
2018-03-04T06:29:39.187Z,35.05
2018-03-04T06:32:07.651Z,38.08
2018-03-04T06:34:35.252Z,39.45
2018-03-04T06:37:02.853Z,42.75
2018-03-04T06:39:30.479Z,41.22
2018-03-04T06:41:58.096Z,41.15
2018-03-04T06:44:25.715Z,44.63
2018-03-04T06:47:11.195Z,46.35
2018-03-04T06:49:38.835Z,47.15
2018-03-04T06:52:06.423Z,47.83
2018-03-04T06:54:34.034Z,44.47
2018-03-04T06:57:01.676Z,45.10
2018-03-04T06:59:30.042Z,45.85
2018-03-04T07:02:16.178Z,44.85
2018-03-04T07:04:43.744Z,46.28
2018-03-04T07:07:11.359Z,51.08
2018-03-04T07:09:38.948Z,64.95
2018-03-04T07:12:07.049Z,40.35
2018-03-04T07:14:34.651Z,36.72
2018-03-04T07:17:02.235Z,42.20
2018-03-04T07:19:33.470Z,38.58
2018-03-04T07:22:01.064Z,43.50
2018-03-04T07:24:28.761Z,44.95
2018-03-04T07:26:56.356Z,39.45
2018-03-04T07:29:24.733Z,38.63
2018-03-04T07:31:53.143Z,31.42
2018-03-04T07:34:20.743Z,31.55
2018-03-04T07:36:48.372Z,29.40
2018-03-04T07:39:15.975Z,29.15
2018-03-04T07:41:43.582Z,26.27
2018-03-04T07:44:11.126Z,26.83
2018-03-04T07:52:36.829Z,22.00
2018-03-04T07:55:04.476Z,18.58
2018-03-04T07:57:32.075Z,18.42
2018-03-04T07:59:59.697Z,18.37
2018-03-04T08:02:27.329Z,16.85
2018-03-04T08:04:54.937Z,17.60
2018-03-04T08:07:41.681Z,15.75
2018-03-04T08:13:21.947Z,15.93
2018-03-04T08:15:50.340Z,14.63
2018-03-04T08:18:18.755Z,15.60
2018-03-04T08:20:47.112Z,13.53
2018-03-04T08:26:57.237Z,12.23
2018-03-04T08:29:24.891Z,12.32
2018-03-04T08:31:52.521Z,10.97
2018-03-04T08:34:20.162Z,11.60
2018-03-04T08:36:48.567Z,8.83
2018-03-04T08:39:16.264Z,9.33
2018-03-04T08:41:43.855Z,9.87
2018-03-04T08:44:12.239Z,10.40
2018-03-04T08:46:40.664Z,11.20
2018-03-04T08:49:08.327Z,11.17
2018-03-04T08:51:35.907Z,12.40
2018-03-04T08:54:03.527Z,12.30
2018-03-04T08:56:31.182Z,11.37
2018-03-04T08:58:58.850Z,11.70
2018-03-04T09:01:26.432Z,10.67
2018-03-04T09:03:54.048Z,11.43
2018-03-04T09:06:21.685Z,12.83
2018-03-04T09:08:49.331Z,10.77
2018-03-04T09:11:16.891Z,11.47
2018-03-04T09:13:44.485Z,10.00
2018-03-04T09:16:12.868Z,10.70
2018-03-04T09:18:40.466Z,11.13
2018-03-04T09:21:08.072Z,11.20
2018-03-04T09:23:41.979Z,11.50
2018-03-04T09:26:09.581Z,11.60
2018-03-04T09:28:37.159Z,11.70
2018-03-04T09:31:04.765Z,12.27
2018-03-04T09:33:33.102Z,12.57
2018-03-04T09:36:00.703Z,10.93
2018-03-04T09:38:28.287Z,9.67
2018-03-04T09:40:55.862Z,10.50
2018-03-04T09:43:23.405Z,9.17
2018-03-04T09:45:51.007Z,8.93
2018-03-04T09:48:26.460Z,9.23
2018-03-04T09:50:54.029Z,8.50
2018-03-04T09:53:21.590Z,8.80
2018-03-04T10:01:51.608Z,8.87
2018-03-04T10:04:19.181Z,9.00
2018-03-04T10:06:46.824Z,9.00
2018-03-04T10:09:14.419Z,8.83
2018-03-04T10:11:42.017Z,8.47
2018-03-04T10:14:09.575Z,8.30
2018-03-04T10:16:37.130Z,8.10
2018-03-04T10:19:05.523Z,7.80
2018-03-04T10:30:17.993Z,8.40
2018-03-04T10:32:45.591Z,8.00
2018-03-04T10:35:13.197Z,7.70
2018-03-04T10:46:38.268Z,7.30
2018-03-04T10:49:05.824Z,6.67
2018-03-04T10:51:33.400Z,6.93
2018-03-04T10:54:00.946Z,7.93
2018-03-04T10:56:28.562Z,7.37
2018-03-04T10:59:11.183Z,6.90
2018-03-04T11:01:44.491Z,6.97
2018-03-04T11:04:12.882Z,3.00
2018-03-04T11:06:41.184Z,2.90
2018-03-04T11:09:08.785Z,2.90
2018-03-04T11:11:36.379Z,2.30
2018-03-04T11:14:04.720Z,3.97
2018-03-04T11:16:32.322Z,3.90
2018-03-04T11:18:59.914Z,3.80
2018-03-04T11:21:27.516Z,2.90
2018-03-04T11:24:02.111Z,2.60
2018-03-04T11:26:33.558Z,2.53
2018-03-04T11:31:55.719Z,2.33
2018-03-04T11:34:23.267Z,2.07
2018-03-04T11:36:50.795Z,2.40
2018-03-04T11:45:21.774Z,1.70
2018-03-04T11:47:49.318Z,1.93
2018-03-04T11:50:17.599Z,2.00
2018-03-04T11:52:45.898Z,2.30
2018-03-04T11:55:13.421Z,2.27
2018-03-04T11:57:41.723Z,1.80
2018-03-04T12:00:09.295Z,1.80
2018-03-04T12:02:36.838Z,2.27
2018-03-04T12:05:04.389Z,1.80
2018-03-04T12:07:31.951Z,1.80
2018-03-04T12:09:59.567Z,2.13
2018-03-04T12:12:27.127Z,2.03
2018-03-04T12:14:54.660Z,1.60
2018-03-04T12:17:22.280Z,1.63
2018-03-04T12:19:50.665Z,1.80
2018-03-04T12:22:18.278Z,1.60
2018-03-04T12:24:45.879Z,1.90
2018-03-04T12:27:14.243Z,1.77
2018-03-04T12:29:42.616Z,1.77
2018-03-04T12:32:10.198Z,2.00
2018-03-04T12:34:38.562Z,1.80
2018-03-04T12:37:06.168Z,2.20
2018-03-04T12:39:35.706Z,2.30
2018-03-04T12:44:57.156Z,2.20
2018-03-04T12:47:24.737Z,2.03
2018-03-04T12:49:53.056Z,1.80
2018-03-04T12:52:20.639Z,2.20
2018-03-04T12:54:48.179Z,2.10
2018-03-04T12:57:15.752Z,2.20
2018-03-04T12:59:43.323Z,1.97
2018-03-04T13:02:10.892Z,2.00
2018-03-04T13:04:38.468Z,1.90
2018-03-04T13:07:06.835Z,2.27
2018-03-04T13:09:35.175Z,1.80
2018-03-04T13:12:16.631Z,1.90
2018-03-04T13:14:44.208Z,1.97
2018-03-04T13:17:11.830Z,1.60
2018-03-04T13:19:39.382Z,1.60
2018-03-04T13:22:07.753Z,1.97
2018-03-04T13:25:01.903Z,1.87
2018-03-04T13:27:29.463Z,2.00
2018-03-04T13:29:57.019Z,1.80
2018-03-04T13:32:24.587Z,2.00
2018-03-04T13:34:52.147Z,2.10
2018-03-04T13:37:19.763Z,1.83
2018-03-04T13:39:47.387Z,2.30
2018-03-04T13:42:14.953Z,2.10
2018-03-04T13:44:43.293Z,2.27
2018-03-04T13:47:10.914Z,1.77
2018-03-04T13:49:38.516Z,1.70
2018-03-04T13:52:06.100Z,1.67
2018-03-04T13:54:33.658Z,1.90
2018-03-04T13:57:01.191Z,1.50
2018-03-04T13:59:28.804Z,1.73
2018-03-04T14:01:57.161Z,1.70
2018-03-04T14:04:24.761Z,1.70
2018-03-04T14:06:52.311Z,1.50
2018-03-04T14:09:19.907Z,2.00
2018-03-04T14:11:47.497Z,2.10
2018-03-04T14:14:38.622Z,1.90
2018-03-04T14:17:07.041Z,2.40
2018-03-04T14:19:34.599Z,2.30
2018-03-04T14:22:02.228Z,2.40
2018-03-04T14:24:30.560Z,3.10
2018-03-04T14:27:04.207Z,2.70
2018-03-04T14:29:31.914Z,3.03
2018-03-04T14:31:59.501Z,3.13
2018-03-04T14:34:27.136Z,3.20
2018-03-04T14:36:54.757Z,2.80
2018-03-04T14:39:22.393Z,3.50
2018-03-04T14:41:49.991Z,3.10
2018-03-04T14:44:17.555Z,3.50
2018-03-04T14:46:45.117Z,3.50
2018-03-04T14:49:12.716Z,2.73
2018-03-04T14:51:40.319Z,3.03
2018-03-04T14:54:07.915Z,2.70
2018-03-04T14:56:35.509Z,2.93
2018-03-04T14:59:03.088Z,3.23
2018-03-04T15:01:31.460Z,3.20
2018-03-04T15:03:59.035Z,4.03
2018-03-04T15:06:26.676Z,3.30
2018-03-04T15:08:54.317Z,4.43
2018-03-04T15:11:21.933Z,3.97
2018-03-04T15:13:49.507Z,4.70
2018-03-04T15:16:17.063Z,3.60
2018-03-04T15:18:44.705Z,20.83
2018-03-04T15:21:12.267Z,5.30
2018-03-04T15:23:47.537Z,4.70
2018-03-04T15:26:15.107Z,3.77
2018-03-04T15:28:42.711Z,3.90
2018-03-04T15:31:11.031Z,5.13
2018-03-04T15:33:38.699Z,5.00
2018-03-04T15:36:06.283Z,4.63
2018-03-04T15:38:33.847Z,6.20
2018-03-04T15:41:01.419Z,8.70
2018-03-04T15:43:29.770Z,4.63
2018-03-04T15:45:57.368Z,2.80
2018-03-04T15:48:24.951Z,4.37
2018-03-04T15:50:52.590Z,3.00
2018-03-04T15:53:20.222Z,2.93
2018-03-04T15:55:47.831Z,2.73
2018-03-04T15:58:15.434Z,2.73
2018-03-04T16:00:43.072Z,3.43
2018-03-04T16:06:05.047Z,3.77
2018-03-04T16:08:32.638Z,3.50
2018-03-04T16:11:00.963Z,3.70
2018-03-04T16:13:28.576Z,3.73
2018-03-04T16:15:56.207Z,4.30
2018-03-04T16:18:23.848Z,4.30
2018-03-04T16:20:51.429Z,4.27
2018-03-04T16:23:19.047Z,4.87
2018-03-04T16:25:46.636Z,4.87
2018-03-04T16:31:08.306Z,4.90
2018-03-04T16:33:36.703Z,5.03
2018-03-04T16:36:04.314Z,5.07
2018-03-04T16:38:31.953Z,5.40
2018-03-04T16:40:59.519Z,5.50
2018-03-04T16:43:27.131Z,7.30
2018-03-04T16:45:55.460Z,13.30
2018-03-04T16:48:23.102Z,6.90
2018-03-04T16:50:50.693Z,6.90
2018-03-04T16:53:18.266Z,7.10
2018-03-04T16:55:45.894Z,9.17
2018-03-04T16:58:13.525Z,9.50
2018-03-04T17:00:41.181Z,7.77
2018-03-04T17:06:13.191Z,7.80
2018-03-04T17:08:48.173Z,8.40
2018-03-04T17:11:35.977Z,8.60
2018-03-04T17:14:04.412Z,10.33
2018-03-04T17:16:32.013Z,9.20
2018-03-04T17:18:59.584Z,9.47
2018-03-04T17:21:27.192Z,12.57
2018-03-04T17:23:54.776Z,8.00
2018-03-04T17:26:22.410Z,7.57
2018-03-04T17:28:54.108Z,9.43
2018-03-04T17:31:21.725Z,12.17
2018-03-04T17:33:50.079Z,13.90
2018-03-04T17:36:17.677Z,13.83
2018-03-04T17:38:45.319Z,12.00
2018-03-04T17:41:13.682Z,9.80
2018-03-04T17:43:42.056Z,9.97
2018-03-04T17:46:09.711Z,10.60
2018-03-04T17:48:37.300Z,10.23
2018-03-04T17:51:05.687Z,35.10
2018-03-04T17:53:33.299Z,9.60
2018-03-04T17:56:22.086Z,8.10
2018-03-04T17:58:50.478Z,12.37
2018-03-04T18:01:18.108Z,10.70
2018-03-04T18:03:45.757Z,10.70
2018-03-04T18:06:13.374Z,10.63
2018-03-04T18:08:41.018Z,11.53
2018-03-04T18:11:09.410Z,10.95
2018-03-04T18:13:36.992Z,11.18
2018-03-04T18:19:05.401Z,13.52
2018-03-04T18:27:24.332Z,12.90
2018-03-04T18:29:51.912Z,12.88
2018-03-04T18:32:19.497Z,11.88
2018-03-04T18:34:50.169Z,11.95
2018-03-04T18:37:17.799Z,11.60
2018-03-04T18:39:45.410Z,34.10
2018-03-04T18:42:17.497Z,21.23
2018-03-04T18:44:45.119Z,19.93
2018-03-04T18:47:12.756Z,18.65
2018-03-04T18:49:40.356Z,16.43
2018-03-04T18:52:08.707Z,15.90
2018-03-04T18:54:36.299Z,13.90
2018-03-04T18:57:04.662Z,15.30
2018-03-04T18:59:32.231Z,11.10
2018-03-04T19:02:00.605Z,15.90
2018-03-04T19:04:28.203Z,16.67
2018-03-04T19:06:55.819Z,16.37
2018-03-04T19:09:23.407Z,17.67
2018-03-04T19:11:51.027Z,32.63
2018-03-04T19:14:18.606Z,17.80
2018-03-04T19:16:46.243Z,33.50
2018-03-04T19:19:13.860Z,18.55
2018-03-04T19:21:41.504Z,19.57
2018-03-04T19:24:09.915Z,22.20
2018-03-04T19:26:37.525Z,18.48
2018-03-04T19:29:05.963Z,17.30
2018-03-04T19:31:33.540Z,20.90
2018-03-04T19:34:01.138Z,28.77
2018-03-04T19:36:29.512Z,24.45
2018-03-04T19:38:57.889Z,31.95
2018-03-04T19:41:26.239Z,22.83
2018-03-04T19:43:53.853Z,17.92
2018-03-04T19:46:21.465Z,16.90
2018-03-04T19:48:49.067Z,16.77
2018-03-04T19:51:16.661Z,16.10
2018-03-04T19:53:44.254Z,17.73
2018-03-04T19:56:11.883Z,15.52
2018-03-04T19:58:39.534Z,13.15
2018-03-04T20:01:07.922Z,13.23
2018-03-04T20:03:35.566Z,16.10
2018-03-04T20:06:03.474Z,12.50
2018-03-04T20:08:31.104Z,12.35
2018-03-04T20:10:58.759Z,17.23
2018-03-04T20:13:26.397Z,13.77
2018-03-04T20:15:54.009Z,13.65
2018-03-04T20:18:21.589Z,15.02
2018-03-04T20:20:49.207Z,18.17
2018-03-04T20:23:16.813Z,16.50
2018-03-04T20:25:44.444Z,18.45
2018-03-04T20:28:12.056Z,17.25
2018-03-04T20:30:39.627Z,18.02
2018-03-04T20:33:07.240Z,17.55
2018-03-04T20:35:34.839Z,17.40
2018-03-04T20:38:02.459Z,17.37
2018-03-04T20:40:30.076Z,17.52
2018-03-04T20:42:57.638Z,17.80
2018-03-04T20:45:25.256Z,17.70
2018-03-04T20:47:53.610Z,17.27
2018-03-04T20:50:21.227Z,17.75
2018-03-04T20:52:48.823Z,17.52
2018-03-04T20:55:16.499Z,17.90
2018-03-04T20:57:44.103Z,17.90
2018-03-04T21:00:11.688Z,18.83
2018-03-04T21:02:39.322Z,20.20
2018-03-04T21:05:06.945Z,19.33
2018-03-04T21:07:34.524Z,19.80
2018-03-04T21:10:02.176Z,18.20
2018-03-04T21:12:29.759Z,18.10
2018-03-04T21:14:58.135Z,17.70
2018-03-04T21:17:26.531Z,15.57
2018-03-04T21:19:54.131Z,16.45
2018-03-04T21:22:21.774Z,15.38
2018-03-04T21:24:49.447Z,15.63
2018-03-04T21:27:17.047Z,14.65
2018-03-04T21:29:45.429Z,15.15
2018-03-04T21:32:13.823Z,14.50
2018-03-04T21:34:42.188Z,42.55
2018-03-04T21:37:10.567Z,33.70
2018-03-04T21:39:38.929Z,15.10
2018-03-04T21:42:06.668Z,19.25
2018-03-04T21:44:34.215Z,16.35
2018-03-04T21:47:01.803Z,16.27
2018-03-04T21:49:29.436Z,15.35
2018-03-04T21:51:57.051Z,17.30
2018-03-04T21:54:25.434Z,16.42
2018-03-04T21:56:53.802Z,17.60
2018-03-04T21:59:22.183Z,15.93
2018-03-04T22:01:50.536Z,16.52
2018-03-04T22:04:18.103Z,16.80
2018-03-04T22:06:45.688Z,17.20
2018-03-04T22:09:14.070Z,17.50
2018-03-04T22:11:41.691Z,18.90
2018-03-04T22:14:09.304Z,19.00
2018-03-04T22:16:36.924Z,19.60
2018-03-04T22:19:04.498Z,20.90
2018-03-04T22:21:32.900Z,25.00
2018-03-04T22:24:00.514Z,23.02
2018-03-04T22:26:28.152Z,20.73
2018-03-04T22:35:00.112Z,17.40
2018-03-04T22:37:28.508Z,16.75
2018-03-04T22:39:56.142Z,17.37
2018-03-04T22:42:24.511Z,19.80
2018-03-04T22:44:52.099Z,16.60
2018-03-04T22:47:19.715Z,15.05
2018-03-04T22:49:47.298Z,16.87
2018-03-04T22:52:15.699Z,15.52
2018-03-04T22:54:43.289Z,14.00
2018-03-04T22:57:10.893Z,14.40
2018-03-04T22:59:38.442Z,15.00
2018-03-04T23:02:06.332Z,15.82
2018-03-04T23:04:34.766Z,15.43
2018-03-04T23:07:02.356Z,14.20
2018-03-04T23:09:29.969Z,14.57
2018-03-04T23:11:58.315Z,14.13
2018-03-04T23:14:26.702Z,15.40
2018-03-04T23:16:54.292Z,14.00
2018-03-04T23:19:21.935Z,13.50
2018-03-04T23:21:49.554Z,14.38
2018-03-04T23:24:17.222Z,15.43
2018-03-04T23:26:45.585Z,14.43
2018-03-04T23:29:13.196Z,13.80
2018-03-04T23:31:40.835Z,13.75
2018-03-04T23:34:09.231Z,13.05
2018-03-04T23:36:36.828Z,13.48
2018-03-04T23:39:04.418Z,11.88
2018-03-04T23:41:32.808Z,11.27
2018-03-04T23:44:01.135Z,11.20
2018-03-04T23:46:28.728Z,11.77
2018-03-04T23:48:56.370Z,10.00
2018-03-04T23:51:23.999Z,9.98
2018-03-04T23:53:51.614Z,9.48
2018-03-04T23:56:19.223Z,9.45
2018-03-04T23:58:46.812Z,9.27
